createdAt,value
2023-04-17T00:02:20.123Z,89.54
2023-04-17T00:04:48.647Z,89.56
2023-04-17T00:07:16.670Z,89.57
2023-04-17T00:09:44.282Z,89.53
2023-04-17T00:12:11.920Z,89.55
2023-04-17T00:14:39.606Z,89.60
2023-04-17T00:17:07.724Z,89.60
2023-04-17T00:19:35.467Z,89.61
2023-04-17T00:22:03.140Z,89.62
2023-04-17T00:24:31.171Z,89.58
2023-04-17T00:26:58.815Z,89.59
2023-04-17T00:29:26.433Z,89.67
2023-04-17T00:31:54.106Z,89.75
2023-04-17T00:34:21.791Z,89.78
2023-04-17T00:36:49.851Z,89.81
2023-04-17T00:39:17.660Z,89.81
2023-04-17T00:41:45.473Z,89.82
2023-04-17T00:44:14.042Z,89.84
2023-04-17T00:46:42.000Z,89.90
2023-04-17T00:49:10.998Z,89.97
2023-04-17T00:51:38.800Z,89.98
2023-04-17T00:54:07.401Z,90.01
2023-04-17T00:56:35.506Z,90.06
2023-04-17T00:59:06.097Z,90.15
2023-04-17T01:01:33.872Z,90.27
2023-04-17T01:04:07.520Z,90.36
2023-04-17T01:06:36.544Z,90.32
2023-04-17T01:09:04.281Z,90.34
2023-04-17T01:11:32.033Z,90.42
2023-04-17T01:14:00.291Z,90.46
2023-04-17T01:16:30.692Z,90.46
2023-04-17T01:18:59.649Z,90.43
2023-04-17T01:21:27.655Z,90.47
2023-04-17T01:24:02.580Z,90.52
2023-04-17T01:26:32.721Z,90.56
2023-04-17T01:29:00.849Z,90.60
2023-04-17T01:31:30.116Z,90.61
2023-04-17T01:33:57.910Z,90.45
2023-04-17T01:36:25.612Z,90.45
2023-04-17T01:38:53.232Z,90.50
2023-04-17T01:41:20.915Z,90.55
2023-04-17T01:43:48.973Z,90.57
2023-04-17T01:46:16.657Z,90.58
2023-04-17T01:48:44.623Z,90.61
2023-04-17T01:51:12.312Z,90.66
2023-04-17T01:53:40.093Z,90.66
2023-04-17T01:56:07.932Z,90.66
2023-04-17T01:58:36.015Z,90.64
2023-04-17T02:01:04.204Z,90.60
2023-04-17T02:03:32.172Z,90.57
2023-04-17T02:06:00.124Z,90.54
2023-04-17T02:08:27.840Z,90.54
2023-04-17T02:10:56.033Z,90.52
2023-04-17T02:13:24.130Z,90.47
2023-04-17T02:15:52.256Z,90.45
2023-04-17T02:18:20.766Z,90.45
2023-04-17T02:20:48.915Z,90.46
2023-04-17T02:23:16.627Z,90.41
2023-04-17T02:25:44.249Z,90.43
2023-04-17T02:28:11.934Z,90.52
2023-04-17T02:30:39.723Z,90.62
2023-04-17T02:33:07.553Z,90.73
2023-04-17T02:35:35.459Z,90.83
2023-04-17T02:38:03.280Z,90.88
2023-04-17T02:40:33.140Z,90.91
2023-04-17T02:43:02.484Z,90.96
2023-04-17T02:45:30.783Z,91.03
2023-04-17T02:47:58.633Z,91.08
2023-04-17T02:50:26.603Z,91.10
2023-04-17T02:53:05.176Z,91.11
2023-04-17T02:55:32.985Z,91.11
2023-04-17T02:58:00.932Z,91.09
2023-04-17T03:00:29.532Z,91.06
2023-04-17T03:02:57.500Z,91.01
2023-04-17T03:05:25.880Z,90.96
2023-04-17T03:07:54.681Z,90.90
2023-04-17T03:10:22.585Z,90.81
2023-04-17T03:12:50.379Z,90.70
2023-04-17T03:15:18.067Z,90.67
2023-04-17T03:17:46.108Z,90.57
2023-04-17T03:44:19.454Z,91.15
2023-04-17T03:46:47.195Z,91.16
2023-04-17T03:49:15.452Z,91.16
2023-04-17T03:51:43.856Z,91.16
2023-04-17T03:54:16.168Z,91.16
2023-04-17T03:56:44.582Z,91.17
2023-04-17T03:59:12.633Z,91.21
2023-04-17T04:01:45.375Z,91.24
2023-04-17T04:04:18.644Z,91.31
2023-04-17T04:33:36.968Z,93.83
2023-04-17T04:36:03.704Z,93.83
2023-04-17T04:38:31.881Z,93.90
2023-04-17T04:41:05.260Z,94.03
2023-04-17T04:43:32.894Z,94.06
2023-04-17T04:46:00.051Z,94.08
2023-04-17T04:48:28.282Z,94.10
2023-04-17T04:50:57.470Z,94.09
2023-04-17T04:53:24.295Z,93.96
2023-04-17T04:55:56.740Z,93.65
2023-04-17T04:58:23.345Z,93.31
2023-04-17T05:00:51.590Z,93.00
2023-04-17T05:03:25.743Z,92.91
2023-04-17T05:05:52.704Z,92.68
2023-04-17T05:08:19.623Z,92.47
2023-04-17T05:10:52.756Z,92.15
2023-04-17T05:13:19.222Z,91.69
2023-04-17T05:15:45.520Z,91.81
2023-04-17T05:18:12.116Z,91.76
2023-04-17T05:20:38.627Z,91.46
2023-04-17T05:23:05.493Z,91.40
2023-04-17T05:25:31.818Z,91.53
2023-04-17T05:27:58.288Z,91.70
2023-04-17T05:30:24.617Z,91.71
2023-04-17T05:32:59.054Z,91.30
2023-04-17T05:35:41.159Z,91.07
2023-04-17T05:38:09.043Z,90.69
2023-04-17T05:40:35.753Z,90.64
2023-04-17T05:43:10.440Z,90.44
2023-04-17T05:45:38.416Z,90.35
2023-04-17T05:48:07.897Z,90.29
2023-04-17T05:50:36.708Z,90.11
2023-04-17T05:53:03.872Z,89.94
2023-04-17T05:55:33.745Z,89.91
2023-04-17T05:58:10.530Z,89.87
2023-04-17T06:00:47.919Z,89.73
2023-04-17T06:03:18.198Z,89.54
2023-04-17T06:05:46.298Z,89.46
2023-04-17T06:08:12.620Z,89.41
2023-04-17T06:10:38.998Z,89.42
2023-04-17T06:13:05.280Z,89.68
2023-04-17T06:15:31.558Z,89.63
2023-04-17T06:17:57.918Z,89.56
2023-04-17T06:20:24.214Z,89.44
2023-04-17T06:22:50.547Z,89.47
2023-04-17T06:25:17.592Z,89.35
2023-04-17T06:27:45.135Z,89.39
2023-04-17T06:30:12.429Z,89.45
2023-04-17T06:32:49.973Z,89.18
2023-04-17T06:35:18.477Z,89.10
2023-04-17T06:37:48.484Z,88.82
2023-04-17T06:40:14.788Z,88.60
2023-04-17T06:42:41.049Z,88.63
2023-04-17T06:45:11.646Z,88.56
2023-04-17T06:47:38.113Z,88.28
2023-04-17T06:50:05.129Z,88.02
2023-04-17T06:52:31.405Z,87.68
2023-04-17T06:54:57.879Z,87.60
2023-04-17T06:57:24.234Z,87.51
2023-04-17T06:59:50.790Z,87.40
2023-04-17T07:02:17.316Z,87.45
2023-04-17T07:04:43.941Z,86.79
2023-04-17T07:07:10.430Z,86.38
2023-04-17T07:09:36.687Z,85.77
2023-04-17T07:12:03.169Z,85.64
2023-04-17T07:14:30.020Z,85.47
2023-04-17T07:16:56.282Z,85.24
2023-04-17T07:19:22.675Z,84.90
2023-04-17T07:21:48.877Z,84.68
2023-04-17T07:24:15.160Z,84.54
2023-04-17T07:26:42.672Z,84.68
2023-04-17T07:29:08.928Z,84.36
2023-04-17T07:31:35.375Z,83.82
2023-04-17T07:34:01.713Z,83.41
2023-04-17T07:36:29.191Z,83.07
2023-04-17T07:38:55.404Z,82.95
2023-04-17T07:41:21.683Z,82.23
2023-04-17T07:43:48.533Z,81.83
2023-04-17T07:46:14.813Z,81.01
2023-04-17T07:48:41.153Z,80.64
2023-04-17T07:51:07.527Z,80.81
2023-04-17T07:53:35.550Z,79.85
2023-04-17T07:56:01.916Z,79.08
2023-04-17T07:58:28.384Z,78.52
2023-04-17T08:00:54.756Z,78.34
2023-04-17T08:03:21.796Z,78.43
2023-04-17T08:05:48.648Z,77.98
2023-04-17T08:08:15.468Z,77.35
2023-04-17T08:10:41.687Z,77.21
2023-04-17T08:13:07.922Z,77.56
2023-04-17T08:15:34.421Z,77.68
2023-04-17T08:18:00.817Z,77.34
2023-04-17T08:20:27.403Z,77.02
2023-04-17T08:22:53.674Z,76.48
2023-04-17T08:25:20.416Z,76.78
2023-04-17T08:27:47.000Z,76.63
2023-04-17T08:30:16.225Z,76.65
2023-04-17T08:32:46.646Z,76.83
2023-04-17T08:35:14.297Z,76.92
2023-04-17T08:37:42.029Z,76.79
2023-04-17T08:40:09.156Z,76.83
2023-04-17T08:42:36.965Z,77.17
2023-04-17T08:45:08.896Z,77.21
2023-04-17T08:47:39.182Z,77.32
2023-04-17T08:50:15.234Z,77.66
2023-04-17T08:52:43.162Z,77.71
2023-04-17T08:55:19.107Z,77.76
2023-04-17T08:58:03.189Z,77.66
2023-04-17T09:00:33.825Z,77.71
2023-04-17T09:03:03.324Z,77.76
2023-04-17T09:05:35.954Z,77.76
2023-04-17T09:08:07.271Z,77.85
2023-04-17T09:10:42.617Z,77.76
2023-04-17T09:13:11.508Z,77.59
2023-04-17T09:15:37.825Z,77.64
2023-04-17T09:18:04.337Z,77.48
2023-04-17T09:20:31.256Z,77.58
2023-04-17T09:23:00.272Z,77.35
2023-04-17T09:25:27.600Z,77.07
2023-04-17T09:28:00.784Z,76.84
2023-04-17T09:30:27.080Z,76.27
2023-04-17T09:33:04.595Z,76.22
2023-04-17T09:35:32.761Z,76.12
2023-04-17T09:37:59.387Z,76.16
2023-04-17T09:40:27.997Z,75.86
2023-04-17T09:42:58.456Z,75.66
2023-04-17T09:45:27.513Z,75.02
2023-04-17T09:47:56.526Z,74.86
2023-04-17T09:50:26.342Z,74.44
2023-04-17T09:52:55.225Z,74.04
2023-04-17T09:55:23.407Z,73.74
2023-04-17T09:57:55.375Z,73.95
2023-04-17T10:00:24.886Z,74.24
2023-04-17T10:02:53.471Z,74.59
2023-04-17T10:05:22.084Z,74.44
2023-04-17T10:07:48.738Z,74.57
2023-04-17T10:10:32.638Z,74.57
2023-04-17T10:13:01.730Z,74.39
2023-04-17T10:15:29.841Z,74.30
2023-04-17T10:18:19.128Z,74.32
2023-04-17T10:20:47.978Z,74.36
2023-04-17T10:23:32.496Z,73.94
2023-04-17T10:26:25.692Z,73.85
2023-04-17T10:28:53.387Z,73.41
2023-04-17T10:31:22.507Z,73.01
2023-04-17T10:33:53.509Z,73.04
2023-04-17T10:36:37.864Z,72.98
2023-04-17T10:39:15.627Z,72.99
2023-04-17T10:42:01.973Z,73.08
2023-04-17T10:44:35.241Z,72.84
2023-04-17T10:47:09.406Z,72.55
2023-04-17T10:49:57.597Z,72.06
2023-04-17T10:52:39.307Z,71.36
2023-04-17T10:55:07.161Z,70.98
2023-04-17T10:57:51.925Z,70.77
2023-04-17T11:00:20.984Z,70.75
2023-04-17T11:02:49.576Z,70.55
2023-04-17T11:05:20.556Z,69.85
2023-04-17T11:07:51.031Z,69.72
2023-04-17T11:10:19.126Z,69.58
2023-04-17T11:12:52.535Z,69.98
2023-04-17T11:15:30.000Z,69.50
2023-04-17T11:17:57.964Z,69.44
2023-04-17T11:20:30.159Z,69.18
2023-04-17T11:23:01.018Z,68.89
2023-04-17T11:25:32.878Z,68.61
2023-04-17T11:28:05.049Z,68.48
2023-04-17T11:30:36.474Z,68.56
2023-04-17T11:33:05.435Z,68.72
2023-04-17T11:35:34.116Z,68.32
2023-04-17T11:38:21.684Z,68.03
2023-04-17T11:40:54.082Z,67.76
2023-04-17T11:43:22.291Z,67.67
2023-04-17T11:45:58.842Z,67.70
2023-04-17T11:48:29.449Z,67.64
2023-04-17T11:50:58.505Z,67.64
2023-04-17T11:53:25.009Z,67.46
2023-04-17T11:56:13.090Z,66.86
2023-04-17T11:58:52.654Z,67.23
2023-04-17T12:01:23.840Z,67.05
2023-04-17T12:03:51.239Z,66.80
2023-04-17T12:06:17.790Z,66.58
2023-04-17T12:08:52.845Z,66.71
2023-04-17T12:11:26.648Z,67.05
2023-04-17T12:13:53.837Z,67.27
2023-04-17T12:16:21.736Z,67.62
2023-04-17T12:18:48.168Z,67.93
2023-04-17T12:21:14.736Z,68.31
2023-04-17T12:23:41.773Z,68.68
2023-04-17T12:26:08.886Z,69.26
2023-04-17T12:28:35.813Z,69.65
2023-04-17T12:31:03.833Z,70.12
2023-04-17T12:33:31.118Z,70.30
2023-04-17T12:35:58.140Z,70.44
2023-04-17T12:38:24.570Z,70.46
2023-04-17T12:40:50.822Z,70.73
2023-04-17T12:43:17.127Z,70.83
2023-04-17T12:45:46.527Z,70.82
2023-04-17T12:48:14.109Z,71.02
2023-04-17T12:50:44.951Z,71.07
2023-04-17T12:53:14.181Z,71.08
2023-04-17T12:55:42.797Z,71.06
2023-04-17T12:58:10.900Z,71.22
2023-04-17T13:00:39.075Z,71.04
2023-04-17T13:03:06.233Z,70.88
2023-04-17T13:05:34.190Z,70.75
2023-04-17T13:08:00.960Z,70.52
2023-04-17T13:10:27.349Z,70.35
2023-04-17T13:12:54.095Z,70.18
2023-04-17T13:15:21.108Z,69.90
2023-04-17T13:17:47.558Z,70.00
2023-04-17T13:20:13.906Z,69.60
2023-04-17T13:22:40.529Z,69.33
2023-04-17T13:25:07.492Z,69.10
2023-04-17T13:27:34.039Z,68.85
2023-04-17T13:30:00.306Z,68.38
2023-04-17T13:32:26.669Z,67.63
2023-04-17T13:34:53.204Z,66.91
2023-04-17T13:37:19.775Z,66.68
2023-04-17T13:39:46.576Z,66.18
2023-04-17T13:42:15.648Z,65.67
2023-04-17T13:44:43.490Z,65.41
2023-04-17T13:47:12.465Z,65.21
2023-04-17T13:49:38.738Z,65.38
2023-04-17T13:52:06.056Z,65.72
2023-04-17T13:54:32.424Z,65.45
2023-04-17T13:57:00.979Z,64.60
2023-04-17T13:59:27.445Z,63.82
2023-04-17T14:01:53.875Z,64.21
2023-04-17T14:04:21.033Z,64.14
2023-04-17T14:06:50.250Z,63.81
2023-04-17T14:09:17.122Z,62.42
2023-04-17T14:11:43.441Z,61.96
2023-04-17T14:14:12.064Z,62.19
2023-04-17T14:16:40.236Z,62.43
2023-04-17T14:21:39.482Z,60.94
2023-04-17T14:24:06.055Z,61.15
2023-04-17T14:26:32.471Z,61.25
2023-04-17T14:28:58.965Z,61.16
2023-04-17T14:31:25.289Z,61.36
2023-04-17T14:33:51.551Z,61.44
2023-04-17T14:36:17.980Z,61.33
2023-04-17T14:38:48.468Z,61.58
2023-04-17T14:41:16.041Z,61.42
2023-04-17T14:43:42.444Z,61.71
2023-04-17T14:46:08.967Z,61.92
2023-04-17T14:48:44.300Z,61.53
2023-04-17T14:51:22.356Z,60.97
2023-04-17T14:53:49.627Z,60.81
2023-04-17T14:56:16.462Z,60.94
2023-04-17T14:58:42.930Z,60.76
2023-04-17T15:01:09.883Z,60.32
2023-04-17T15:03:36.580Z,60.20
2023-04-17T15:06:03.494Z,60.15
2023-04-17T15:08:30.558Z,60.25
2023-04-17T15:10:58.017Z,60.27
2023-04-17T15:13:24.348Z,60.33
2023-04-17T15:15:52.149Z,60.11
2023-04-17T15:18:18.383Z,60.77
2023-04-17T15:20:45.503Z,60.82
2023-04-17T15:23:11.746Z,60.92
2023-04-17T15:25:38.278Z,61.29
2023-04-17T15:28:04.544Z,61.41
2023-04-17T15:30:30.766Z,61.46
2023-04-17T15:32:57.282Z,61.44
2023-04-17T15:35:23.632Z,61.57
2023-04-17T15:37:49.968Z,61.73
2023-04-17T15:40:16.242Z,61.73
2023-04-17T15:42:43.328Z,61.92
2023-04-17T15:45:10.232Z,62.27
2023-04-17T15:47:36.561Z,62.28
2023-04-17T15:50:03.214Z,62.24
2023-04-17T15:52:29.438Z,62.16
2023-04-17T15:54:55.746Z,62.36
2023-04-17T15:57:22.710Z,62.54
2023-04-17T15:59:49.097Z,62.64
2023-04-17T16:02:16.208Z,62.75
2023-04-17T16:04:43.064Z,62.68
2023-04-17T16:07:11.237Z,62.83
2023-04-17T16:09:39.148Z,63.00
2023-04-17T16:12:08.011Z,63.18
2023-04-17T16:14:35.535Z,63.49
2023-04-17T16:17:02.902Z,63.60
2023-04-17T16:19:30.213Z,63.49
2023-04-17T16:21:57.097Z,63.65
2023-04-17T16:24:24.260Z,63.96
2023-04-17T16:26:58.189Z,63.91
2023-04-17T16:29:25.460Z,64.00
2023-04-17T16:31:53.476Z,64.25
2023-04-17T16:34:20.220Z,64.23
2023-04-17T16:36:48.965Z,64.34
2023-04-17T16:39:15.641Z,64.64
2023-04-17T16:41:42.630Z,64.81
2023-04-17T16:44:09.252Z,64.92
2023-04-17T16:46:55.174Z,65.09
2023-04-17T16:49:22.082Z,65.10
2023-04-17T16:51:48.392Z,65.20
2023-04-17T16:54:15.000Z,65.29
2023-04-17T16:56:42.024Z,65.49
2023-04-17T16:59:08.343Z,65.68
2023-04-17T17:01:35.151Z,65.73
2023-04-17T17:04:01.529Z,65.84
2023-04-17T17:06:28.488Z,66.09
2023-04-17T17:08:55.481Z,66.20
2023-04-17T17:11:22.188Z,66.33
2023-04-17T17:13:49.396Z,66.48
2023-04-17T17:16:17.590Z,66.38
2023-04-17T17:18:45.051Z,66.47
2023-04-17T17:21:12.754Z,66.49
2023-04-17T17:23:42.124Z,66.56
2023-04-17T17:26:08.692Z,66.47
2023-04-17T17:28:35.202Z,66.59
2023-04-17T17:31:03.462Z,66.75
2023-04-17T17:33:32.016Z,66.87
2023-04-17T17:35:59.253Z,67.00
2023-04-17T17:38:31.667Z,67.17
2023-04-17T17:40:58.054Z,67.23
2023-04-17T17:43:24.506Z,67.33
2023-04-17T17:45:51.687Z,67.62
2023-04-17T17:48:19.618Z,67.70
2023-04-17T17:50:46.812Z,68.03
2023-04-17T17:53:13.483Z,68.24
2023-04-17T17:55:39.974Z,68.54
2023-04-17T17:58:08.100Z,68.80
2023-04-17T18:00:35.037Z,68.94
2023-04-17T18:03:01.483Z,69.10
2023-04-17T18:05:27.933Z,69.25
2023-04-17T18:07:54.698Z,69.48
2023-04-17T18:10:21.546Z,69.67
2023-04-17T18:12:48.513Z,69.85
2023-04-17T18:15:14.806Z,69.89
2023-04-17T18:17:41.156Z,70.04
2023-04-17T18:20:08.364Z,70.27
2023-04-17T18:22:37.309Z,70.63
2023-04-17T18:25:05.729Z,70.71
2023-04-17T18:27:35.045Z,70.86
2023-04-17T18:30:03.336Z,71.01
2023-04-17T18:32:31.037Z,71.21
2023-04-17T18:34:57.784Z,71.35
2023-04-17T18:37:24.579Z,71.43
2023-04-17T18:39:51.644Z,71.68
2023-04-17T18:42:18.676Z,71.61
2023-04-17T18:44:45.286Z,71.74
2023-04-17T18:47:12.011Z,72.08
2023-04-17T18:49:38.599Z,72.20
2023-04-17T18:52:05.066Z,72.15
2023-04-17T18:54:31.969Z,72.38
2023-04-17T18:56:58.739Z,72.34
2023-04-17T18:59:27.269Z,72.59
2023-04-17T19:01:53.962Z,72.71
2023-04-17T19:04:21.064Z,72.78
2023-04-17T19:06:47.554Z,72.83
2023-04-17T19:09:14.238Z,73.00
2023-04-17T19:11:40.589Z,73.07
2023-04-17T19:14:07.160Z,73.13
2023-04-17T19:16:33.774Z,73.71
2023-04-17T19:19:00.382Z,74.20
2023-04-17T19:21:27.665Z,74.54
2023-04-17T19:23:54.834Z,74.47
2023-04-17T19:26:22.258Z,74.87
2023-04-17T19:28:48.822Z,75.48
2023-04-17T19:31:15.204Z,75.84
2023-04-17T19:33:41.917Z,76.07
2023-04-17T19:36:08.549Z,76.55
2023-04-17T19:38:34.940Z,76.44
2023-04-17T19:41:18.897Z,77.04
2023-04-17T19:43:46.377Z,77.21
2023-04-17T19:46:13.533Z,77.40
2023-04-17T19:48:42.799Z,77.63
2023-04-17T19:51:10.155Z,78.03
2023-04-17T19:53:40.421Z,78.26
2023-04-17T19:56:08.820Z,78.30
2023-04-17T19:58:36.539Z,77.93
2023-04-17T20:01:03.331Z,78.05
2023-04-17T20:03:31.422Z,78.30
2023-04-17T20:05:58.549Z,78.62
2023-04-17T20:08:25.313Z,78.58
2023-04-17T20:10:52.679Z,78.29
2023-04-17T20:13:18.975Z,78.59
2023-04-17T20:15:45.333Z,78.73
2023-04-17T20:18:11.914Z,78.77
2023-04-17T20:20:38.544Z,79.08
2023-04-17T20:23:05.491Z,79.06
2023-04-17T20:25:32.020Z,79.37
2023-04-17T20:27:58.405Z,79.28
2023-04-17T20:30:24.831Z,79.31
2023-04-17T20:32:51.234Z,79.18
2023-04-17T20:35:20.030Z,79.05
2023-04-17T20:37:46.391Z,78.89
2023-04-17T20:40:13.558Z,79.01
2023-04-17T20:42:41.408Z,79.00
2023-04-17T20:45:09.343Z,78.97
2023-04-17T20:47:37.718Z,79.02
2023-04-17T20:50:07.825Z,78.89
2023-04-17T20:52:34.949Z,78.92
2023-04-17T20:55:01.217Z,79.13
2023-04-17T20:57:28.943Z,79.28
2023-04-17T20:59:55.514Z,79.19
2023-04-17T21:02:22.037Z,79.37
2023-04-17T21:04:48.881Z,79.43
2023-04-17T21:07:15.620Z,79.49
2023-04-17T21:09:42.162Z,79.50
2023-04-17T21:12:08.554Z,79.56
2023-04-17T21:14:35.897Z,79.56
2023-04-17T21:17:02.210Z,79.73
2023-04-17T21:19:30.078Z,79.99
2023-04-17T21:21:57.735Z,80.25
2023-04-17T21:24:24.580Z,80.62
2023-04-17T21:26:50.948Z,80.43
2023-04-17T21:29:17.167Z,80.61
2023-04-17T21:31:43.456Z,80.92
2023-04-17T21:34:09.975Z,81.10
2023-04-17T21:36:36.425Z,81.51
2023-04-17T21:39:02.754Z,81.15
2023-04-17T21:41:31.190Z,81.20
2023-04-17T21:44:02.004Z,81.61
2023-04-17T21:46:28.646Z,81.70
2023-04-17T21:48:56.464Z,81.43
2023-04-17T21:51:23.008Z,81.67
2023-04-17T21:53:49.683Z,82.24
2023-04-17T21:56:15.946Z,82.22
2023-04-17T21:58:42.236Z,82.59
2023-04-17T22:01:08.573Z,83.25
2023-04-17T22:03:35.211Z,83.17
2023-04-17T22:06:01.612Z,83.44
2023-04-17T22:08:27.894Z,83.58
2023-04-17T22:10:54.116Z,84.13
2023-04-17T22:13:20.661Z,84.25
2023-04-17T22:15:47.795Z,84.51
2023-04-17T22:18:14.535Z,84.26
2023-04-17T22:20:40.941Z,84.48
2023-04-17T22:23:07.373Z,84.71
2023-04-17T22:25:33.775Z,85.07
2023-04-17T22:28:00.358Z,84.84
2023-04-17T22:30:26.611Z,84.64
2023-04-17T22:32:52.879Z,84.73
2023-04-17T22:35:19.233Z,85.27
2023-04-17T22:37:45.551Z,85.16
2023-04-17T22:40:12.845Z,85.06
2023-04-17T22:42:39.511Z,85.62
2023-04-17T22:45:06.617Z,85.85
2023-04-17T22:47:32.919Z,85.62
2023-04-17T22:49:59.226Z,86.05
2023-04-17T22:52:25.486Z,86.45
2023-04-17T22:54:52.774Z,86.55
2023-04-17T22:57:19.323Z,86.02
2023-04-17T22:59:45.647Z,86.12
2023-04-17T23:02:12.024Z,86.18
2023-04-17T23:04:38.659Z,86.44
2023-04-17T23:07:05.043Z,86.16
2023-04-17T23:09:31.338Z,86.71
2023-04-17T23:11:57.677Z,87.16
2023-04-17T23:14:25.629Z,87.16
2023-04-17T23:16:52.204Z,87.62
2023-04-17T23:19:20.415Z,87.28
2023-04-17T23:21:46.702Z,87.35
2023-04-17T23:24:13.066Z,86.79
2023-04-17T23:26:39.630Z,87.24
2023-04-17T23:29:05.925Z,87.52
2023-04-17T23:31:32.272Z,87.64
2023-04-17T23:33:58.625Z,87.77
2023-04-17T23:36:24.980Z,87.48
2023-04-17T23:38:51.423Z,87.21
2023-04-17T23:41:17.669Z,87.32
2023-04-17T23:43:44.266Z,87.32
2023-04-17T23:46:10.648Z,87.38
2023-04-17T23:48:36.993Z,87.47
2023-04-17T23:51:03.644Z,87.35
2023-04-17T23:53:30.003Z,87.34
2023-04-17T23:55:56.432Z,87.28
2023-04-17T23:58:22.653Z,87.42
